createdAt,value
2023-02-28T00:00:38.038Z,20.85
2023-02-28T00:03:05.103Z,20.45
2023-02-28T00:05:31.874Z,20.95
2023-02-28T00:07:58.532Z,20.70
2023-02-28T00:10:28.304Z,20.25
2023-02-28T00:12:57.710Z,21.35
2023-02-28T00:15:25.102Z,20.55
2023-02-28T00:17:51.938Z,20.83
2023-02-28T00:20:19.292Z,20.25
2023-02-28T00:22:48.250Z,20.80
2023-02-28T00:25:18.913Z,20.70
2023-02-28T00:27:45.559Z,20.92
2023-02-28T00:30:15.845Z,20.92
2023-02-28T00:32:42.896Z,20.98
2023-02-28T00:35:10.695Z,20.88
2023-02-28T00:37:37.610Z,21.05
2023-02-28T00:40:07.163Z,21.00
2023-02-28T00:42:35.383Z,20.88
2023-02-28T00:45:02.508Z,20.65
2023-02-28T00:47:29.188Z,20.67
2023-02-28T00:49:55.905Z,21.83
2023-02-28T00:52:22.638Z,20.88
2023-02-28T00:54:49.248Z,20.65
2023-02-28T00:57:16.044Z,21.40
2023-02-28T00:59:42.870Z,21.25
2023-02-28T01:02:09.469Z,21.02
2023-02-28T01:04:37.240Z,21.08
2023-02-28T01:07:04.456Z,21.08
2023-02-28T01:09:31.644Z,20.75
2023-02-28T01:11:58.778Z,22.05
2023-02-28T01:14:26.135Z,20.65
2023-02-28T01:16:52.830Z,20.83
2023-02-28T01:19:19.443Z,21.58
2023-02-28T01:21:46.917Z,21.05
2023-02-28T01:24:13.587Z,20.90
2023-02-28T01:26:40.347Z,21.20
2023-02-28T01:29:08.029Z,20.90
2023-02-28T01:31:35.334Z,20.70
2023-02-28T01:34:02.327Z,20.85
2023-02-28T01:36:30.703Z,20.80
2023-02-28T01:38:57.399Z,20.77
2023-02-28T01:41:28.420Z,21.27
2023-02-28T01:43:57.315Z,21.85
2023-02-28T01:46:24.127Z,20.63
2023-02-28T01:48:57.898Z,21.05
2023-02-28T01:51:55.476Z,20.67
2023-02-28T01:54:30.273Z,21.33
2023-02-28T01:59:49.802Z,21.00
2023-02-28T02:02:19.273Z,21.25
2023-02-28T02:04:59.503Z,20.92
2023-02-28T02:07:27.858Z,21.58
2023-02-28T02:10:07.280Z,21.13
2023-02-28T02:13:01.576Z,21.10
2023-02-28T02:15:46.085Z,21.05
2023-02-28T02:18:36.201Z,20.95
2023-02-28T02:21:16.579Z,20.85
2023-02-28T02:24:02.416Z,20.63
2023-02-28T02:27:07.945Z,20.95
2023-02-28T02:30:08.632Z,21.02
2023-02-28T02:32:59.931Z,20.92
2023-02-28T02:35:40.731Z,21.08
2023-02-28T02:38:51.812Z,21.20
2023-02-28T02:41:25.943Z,21.20
2023-02-28T02:44:14.069Z,21.40
2023-02-28T02:46:54.807Z,21.38
2023-02-28T02:49:27.124Z,21.42
2023-02-28T02:51:57.493Z,21.42
2023-02-28T02:54:31.768Z,21.42
2023-02-28T02:57:02.452Z,21.25
2023-02-28T02:59:30.094Z,21.45
2023-02-28T03:02:00.641Z,21.45
2023-02-28T03:04:32.161Z,21.20
2023-02-28T03:06:59.222Z,21.13
2023-02-28T03:09:26.988Z,20.88
2023-02-28T03:11:56.643Z,21.05
2023-02-28T03:14:51.731Z,21.00
2023-02-28T03:17:39.653Z,20.90
2023-02-28T03:20:32.460Z,21.02
2023-02-28T03:23:16.095Z,20.98
2023-02-28T03:26:14.710Z,21.00
2023-02-28T03:29:02.502Z,21.27
2023-02-28T03:31:45.508Z,20.75
2023-02-28T03:34:22.158Z,21.10
2023-02-28T03:36:56.455Z,21.05
2023-02-28T03:39:46.010Z,21.23
2023-02-28T03:42:17.093Z,21.17
2023-02-28T03:44:53.060Z,20.92
2023-02-28T03:47:32.697Z,21.33
2023-02-28T03:50:08.034Z,21.08
2023-02-28T03:52:39.020Z,21.48
2023-02-28T03:55:11.772Z,21.65
2023-02-28T03:57:57.639Z,21.42
2023-02-28T04:00:37.839Z,21.98
2023-02-28T04:03:05.367Z,21.27
2023-02-28T04:05:32.862Z,21.50
2023-02-28T04:08:07.693Z,20.67
2023-02-28T04:10:34.476Z,20.35
2023-02-28T04:13:01.059Z,20.83
2023-02-28T04:15:28.234Z,20.63
2023-02-28T04:17:54.909Z,20.95
2023-02-28T04:20:21.554Z,21.48
2023-02-28T04:22:48.302Z,20.90
2023-02-28T04:25:14.944Z,20.88
2023-02-28T04:27:41.570Z,21.42
2023-02-28T04:30:09.087Z,20.73
2023-02-28T04:32:35.687Z,21.10
2023-02-28T04:35:03.474Z,21.88
2023-02-28T04:37:30.127Z,21.60
2023-02-28T04:39:56.850Z,20.52
2023-02-28T04:42:24.578Z,21.00
2023-02-28T04:44:51.276Z,20.95
2023-02-28T04:47:17.883Z,20.85
2023-02-28T04:49:44.489Z,21.40
2023-02-28T04:52:11.438Z,20.90
2023-02-28T04:54:39.892Z,21.35
2023-02-28T04:57:06.810Z,21.65
2023-02-28T04:59:33.773Z,20.88
2023-02-28T05:02:00.566Z,21.35
2023-02-28T05:04:27.214Z,21.08
2023-02-28T05:06:53.805Z,21.02
2023-02-28T05:09:20.413Z,21.13
2023-02-28T05:11:47.075Z,20.63
2023-02-28T05:14:15.013Z,20.70
2023-02-28T05:16:42.161Z,20.88
2023-02-28T05:19:08.864Z,22.35
2023-02-28T05:21:40.753Z,21.70
2023-02-28T05:24:12.346Z,21.92
2023-02-28T05:26:43.711Z,22.60
2023-02-28T05:29:11.536Z,22.25
2023-02-28T05:31:38.577Z,23.23
2023-02-28T05:34:05.393Z,23.27
2023-02-28T05:36:32.135Z,22.38
2023-02-28T05:38:58.950Z,22.05
2023-02-28T05:41:27.206Z,22.10
2023-02-28T05:43:54.149Z,22.20
2023-02-28T05:46:20.814Z,21.95
2023-02-28T05:48:49.030Z,21.73
2023-02-28T05:51:16.124Z,22.30
2023-02-28T05:53:42.688Z,21.90
2023-02-28T05:56:09.357Z,21.48
2023-02-28T05:58:35.952Z,22.90
2023-02-28T06:01:22.012Z,22.35
2023-02-28T06:03:48.652Z,22.50
2023-02-28T06:06:15.260Z,23.70
2023-02-28T06:08:44.225Z,23.02
2023-02-28T06:11:10.852Z,22.63
2023-02-28T06:13:37.447Z,22.73
2023-02-28T06:16:04.180Z,31.63
2023-02-28T06:18:30.920Z,22.40
2023-02-28T06:20:57.483Z,22.92
2023-02-28T06:23:24.077Z,22.35
2023-02-28T06:25:50.741Z,22.48
2023-02-28T06:28:17.449Z,27.65
2023-02-28T06:30:46.379Z,27.85
2023-02-28T06:33:13.376Z,26.75
2023-02-28T06:35:40.060Z,26.38
2023-02-28T06:38:06.747Z,31.13
2023-02-28T06:40:35.896Z,30.85
2023-02-28T06:43:03.118Z,31.20
2023-02-28T06:45:29.828Z,31.45
2023-02-28T06:47:56.409Z,31.92
2023-02-28T06:50:23.077Z,31.52
2023-02-28T06:52:54.660Z,30.80
2023-02-28T06:55:21.333Z,30.77
2023-02-28T06:57:47.971Z,29.65
2023-02-28T07:00:15.183Z,30.15
2023-02-28T07:02:42.068Z,29.08
2023-02-28T07:05:09.162Z,29.35
2023-02-28T07:07:38.158Z,29.65
2023-02-28T07:10:05.071Z,28.73
2023-02-28T07:12:31.685Z,30.33
2023-02-28T07:14:58.307Z,28.98
2023-02-28T07:17:24.985Z,29.67
2023-02-28T07:19:51.567Z,28.95
2023-02-28T07:22:18.392Z,29.33
2023-02-28T07:24:45.204Z,28.42
2023-02-28T07:27:12.191Z,28.73
2023-02-28T07:29:39.097Z,29.52
2023-02-28T07:32:05.868Z,29.73
2023-02-28T07:34:32.477Z,30.02
2023-02-28T07:36:59.151Z,29.58
2023-02-28T07:39:25.736Z,29.27
2023-02-28T07:41:52.369Z,29.23
2023-02-28T07:44:19.256Z,29.83
2023-02-28T07:46:45.901Z,29.75
2023-02-28T07:49:12.524Z,31.50
2023-02-28T07:51:39.125Z,32.15
2023-02-28T07:54:06.137Z,32.88
2023-02-28T07:56:33.053Z,34.38
2023-02-28T07:58:59.781Z,32.45
2023-02-28T08:01:26.500Z,34.60
2023-02-28T08:03:53.195Z,35.67
2023-02-28T08:06:23.053Z,35.50
2023-02-28T08:08:50.280Z,36.55
2023-02-28T08:11:17.843Z,36.35
2023-02-28T08:13:45.645Z,35.85
2023-02-28T08:16:18.194Z,32.00
2023-02-28T08:18:44.956Z,32.25
2023-02-28T08:21:11.607Z,32.08
2023-02-28T08:23:38.940Z,32.58
2023-02-28T08:26:05.879Z,33.42
2023-02-28T08:28:33.170Z,31.85
2023-02-28T08:31:00.062Z,30.65
2023-02-28T08:33:28.694Z,30.88
2023-02-28T08:35:56.795Z,30.23
2023-02-28T08:38:24.416Z,32.10
2023-02-28T08:40:57.490Z,29.38
2023-02-28T08:43:24.080Z,32.20
2023-02-28T08:45:53.366Z,29.30
2023-02-28T08:48:20.054Z,33.22
2023-02-28T08:51:07.228Z,30.25
2023-02-28T08:53:35.146Z,30.60
2023-02-28T08:56:04.780Z,31.63
2023-02-28T08:58:31.493Z,33.22
2023-02-28T09:00:58.274Z,28.40
2023-02-28T09:03:25.466Z,28.67
2023-02-28T09:06:01.777Z,28.95
2023-02-28T09:08:31.130Z,28.52
2023-02-28T09:10:59.218Z,28.58
2023-02-28T09:13:27.549Z,29.63
2023-02-28T09:15:55.147Z,29.13
2023-02-28T09:18:22.154Z,28.13
2023-02-28T09:20:48.717Z,28.73
2023-02-28T09:23:15.528Z,29.90
2023-02-28T09:25:54.145Z,29.33
2023-02-28T09:28:21.669Z,29.13
2023-02-28T09:30:54.329Z,30.35
2023-02-28T09:33:22.438Z,29.20
2023-02-28T09:35:50.175Z,30.58
2023-02-28T09:38:17.764Z,29.92
2023-02-28T09:40:59.812Z,31.60
2023-02-28T09:43:38.574Z,30.40
2023-02-28T09:46:34.035Z,31.00
2023-02-28T09:51:57.397Z,33.70
2023-02-28T09:54:25.930Z,35.92
2023-02-28T09:57:01.763Z,37.08
2023-02-28T10:00:18.241Z,31.45
2023-02-28T10:03:07.437Z,36.90
2023-02-28T10:05:45.828Z,32.97
2023-02-28T10:08:21.511Z,35.15
2023-02-28T10:10:54.188Z,35.75
2023-02-28T10:13:27.281Z,34.80
2023-02-28T10:16:28.119Z,37.25
2023-02-28T10:19:47.293Z,36.63
2023-02-28T10:22:36.970Z,36.30
2023-02-28T10:25:17.330Z,37.85
2023-02-28T10:27:44.901Z,33.67
2023-02-28T10:30:14.659Z,38.67
2023-02-28T10:32:48.607Z,37.22
2023-02-28T10:35:19.625Z,33.58
2023-02-28T10:37:49.929Z,37.03
2023-02-28T10:40:19.250Z,37.10
2023-02-28T10:43:14.886Z,36.15
2023-02-28T10:48:20.355Z,37.38
2023-02-28T10:50:58.601Z,34.42
2023-02-28T10:53:28.092Z,37.17
2023-02-28T10:56:08.898Z,34.95
2023-02-28T10:59:02.004Z,36.83
2023-02-28T11:01:42.361Z,37.05
2023-02-28T11:04:30.485Z,37.40
2023-02-28T11:07:02.472Z,37.55
2023-02-28T11:09:35.733Z,36.95
2023-02-28T11:12:05.624Z,35.10
2023-02-28T11:14:37.309Z,36.72
2023-02-28T11:17:22.585Z,34.80
2023-02-28T11:19:52.909Z,37.08
2023-02-28T11:22:24.228Z,37.58
2023-02-28T11:24:55.912Z,37.00
2023-02-28T11:27:26.643Z,35.42
2023-02-28T11:29:53.414Z,37.88
2023-02-28T11:32:25.484Z,33.75
2023-02-28T11:35:14.780Z,37.10
2023-02-28T11:37:42.401Z,38.28
2023-02-28T11:40:17.722Z,38.55
2023-02-28T11:43:10.805Z,39.13
2023-02-28T11:45:51.255Z,37.80
2023-02-28T11:48:26.163Z,38.08
2023-02-28T11:51:02.189Z,38.95
2023-02-28T11:54:06.111Z,39.28
2023-02-28T11:56:44.097Z,37.15
2023-02-28T11:59:47.473Z,37.72
2023-02-28T12:02:52.594Z,38.25
2023-02-28T12:05:44.776Z,34.72
2023-02-28T12:08:28.221Z,33.17
2023-02-28T12:11:19.089Z,34.03
2023-02-28T12:14:26.274Z,34.80
2023-02-28T12:17:04.816Z,33.53
2023-02-28T12:20:14.495Z,34.67
2023-02-28T12:22:47.571Z,31.90
2023-02-28T12:25:21.238Z,30.02
2023-02-28T12:27:50.566Z,34.50
2023-02-28T12:30:23.408Z,31.17
2023-02-28T12:32:56.272Z,35.00
2023-02-28T12:35:28.649Z,32.95
2023-02-28T12:38:20.329Z,32.38
2023-02-28T12:41:03.274Z,33.88
2023-02-28T12:43:46.225Z,35.25
2023-02-28T12:46:22.514Z,36.75
2023-02-28T12:48:54.227Z,36.88
2023-02-28T12:51:21.483Z,37.25
2023-02-28T12:53:55.837Z,38.00
2023-02-28T12:56:37.949Z,35.85
2023-02-28T12:59:18.105Z,35.00
2023-02-28T13:02:02.728Z,37.17
2023-02-28T13:04:38.804Z,37.83
2023-02-28T13:07:17.367Z,36.92
2023-02-28T13:09:56.974Z,40.08
2023-02-28T13:12:24.476Z,38.58
2023-02-28T13:15:01.343Z,37.47
2023-02-28T13:17:28.090Z,38.33
2023-02-28T13:19:54.834Z,38.58
2023-02-28T13:22:40.639Z,40.08
2023-02-28T13:25:22.720Z,34.08
2023-02-28T13:28:04.732Z,33.65
2023-02-28T13:30:53.711Z,37.30
2023-02-28T13:33:25.898Z,36.03
2023-02-28T13:36:14.654Z,32.22
2023-02-28T13:38:43.792Z,32.33
2023-02-28T13:41:32.574Z,33.35
2023-02-28T13:44:18.592Z,32.60
2023-02-28T13:46:48.352Z,38.00
2023-02-28T13:49:30.256Z,37.20
2023-02-28T13:52:09.646Z,38.15
2023-02-28T13:54:51.856Z,37.00
2023-02-28T13:57:43.569Z,38.28
2023-02-28T14:00:29.260Z,37.88
2023-02-28T14:03:12.475Z,37.05
2023-02-28T14:05:39.912Z,38.45
2023-02-28T14:08:23.904Z,39.22
2023-02-28T14:11:03.299Z,39.20
2023-02-28T14:13:49.238Z,38.72
2023-02-28T14:16:24.978Z,39.67
2023-02-28T14:19:01.060Z,39.60
2023-02-28T14:21:31.726Z,37.35
2023-02-28T14:24:20.586Z,38.15
2023-02-28T14:27:04.615Z,39.20
2023-02-28T14:29:42.747Z,38.20
2023-02-28T14:32:22.981Z,37.10
2023-02-28T14:35:03.121Z,38.40
2023-02-28T14:37:34.150Z,36.95
2023-02-28T14:40:02.287Z,37.38
2023-02-28T14:42:42.541Z,37.03
2023-02-28T14:45:21.248Z,37.00
2023-02-28T14:47:49.780Z,36.80
2023-02-28T14:50:34.843Z,37.25
2023-02-28T14:55:38.083Z,37.65
2023-02-28T14:58:10.044Z,38.13
2023-02-28T15:00:47.035Z,37.70
2023-02-28T15:03:25.701Z,38.92
2023-02-28T15:05:58.204Z,36.97
2023-02-28T15:08:26.881Z,37.60
2023-02-28T15:10:58.678Z,37.30
2023-02-28T15:13:37.684Z,37.28
2023-02-28T15:16:19.108Z,38.58
2023-02-28T15:18:55.886Z,36.95
2023-02-28T15:21:29.932Z,37.58
2023-02-28T15:24:09.632Z,37.72
2023-02-28T15:26:43.021Z,36.13
2023-02-28T15:29:18.897Z,37.03
2023-02-28T15:31:57.289Z,36.90
2023-02-28T15:34:44.853Z,36.58
2023-02-28T15:37:31.523Z,37.38
2023-02-28T15:40:05.902Z,37.47
2023-02-28T15:42:32.571Z,38.35
2023-02-28T15:45:00.629Z,37.08
2023-02-28T15:47:29.570Z,37.42
2023-02-28T15:49:59.578Z,38.28
2023-02-28T15:52:41.799Z,38.97
2023-02-28T15:55:28.204Z,40.38
2023-02-28T15:57:59.499Z,41.95
2023-02-28T16:00:28.021Z,40.85
2023-02-28T16:02:54.770Z,42.53
2023-02-28T16:05:32.744Z,42.67
2023-02-28T16:08:14.479Z,42.20
2023-02-28T16:10:41.201Z,43.40
2023-02-28T16:13:12.779Z,39.70
2023-02-28T16:15:44.087Z,37.53
2023-02-28T16:18:12.476Z,40.03
2023-02-28T16:20:39.428Z,43.22
2023-02-28T16:23:06.121Z,41.65
2023-02-28T16:25:42.690Z,47.35
2023-02-28T16:28:18.581Z,43.10
2023-02-28T16:30:45.466Z,41.38
2023-02-28T16:33:12.112Z,37.53
2023-02-28T16:35:38.807Z,36.05
2023-02-28T16:38:05.852Z,35.78
2023-02-28T16:40:36.048Z,34.90
2023-02-28T16:43:08.261Z,34.75
2023-02-28T16:45:34.986Z,35.85
2023-02-28T16:48:01.682Z,34.83
2023-02-28T16:50:30.467Z,35.90
2023-02-28T16:52:57.472Z,37.10
2023-02-28T16:55:25.955Z,38.50
2023-02-28T16:57:58.377Z,37.22
2023-02-28T17:00:28.045Z,26.48
2023-02-28T17:02:55.312Z,27.13
2023-02-28T17:05:22.792Z,27.20
2023-02-28T17:07:50.083Z,26.60
2023-02-28T17:10:19.650Z,27.13
2023-02-28T17:12:46.310Z,26.98
2023-02-28T17:15:14.729Z,28.08
2023-02-28T17:17:42.373Z,28.73
2023-02-28T17:20:14.300Z,30.23
2023-02-28T17:22:41.357Z,28.73
2023-02-28T17:25:10.354Z,29.35
2023-02-28T17:27:37.768Z,28.08
2023-02-28T17:30:22.028Z,27.00
2023-02-28T17:32:48.714Z,27.90
2023-02-28T17:35:15.645Z,28.65
2023-02-28T17:37:42.937Z,28.35
2023-02-28T17:40:22.203Z,36.75
2023-02-28T17:42:48.858Z,28.73
2023-02-28T17:45:16.525Z,27.70
2023-02-28T17:47:46.352Z,28.13
2023-02-28T17:50:17.521Z,28.33
2023-02-28T17:52:44.246Z,30.10
2023-02-28T17:55:11.985Z,31.40
2023-02-28T17:57:38.792Z,29.88
2023-02-28T18:00:07.612Z,30.92
2023-02-28T18:02:38.239Z,30.45
2023-02-28T18:05:05.408Z,30.70
2023-02-28T18:07:32.295Z,32.33
2023-02-28T18:09:58.989Z,31.55
2023-02-28T18:12:26.196Z,30.15
2023-02-28T18:14:52.904Z,28.75
2023-02-28T18:17:19.525Z,27.10
2023-02-28T18:19:46.121Z,28.67
2023-02-28T18:22:12.722Z,27.52
2023-02-28T18:24:39.693Z,31.70
2023-02-28T18:27:07.007Z,28.50
2023-02-28T18:29:33.689Z,28.13
2023-02-28T18:32:02.223Z,28.90
2023-02-28T18:34:30.515Z,40.97
2023-02-28T18:36:57.592Z,35.17
2023-02-28T18:39:24.378Z,42.72
2023-02-28T18:41:51.032Z,35.65
2023-02-28T18:44:20.368Z,35.03
2023-02-28T18:46:49.292Z,39.42
2023-02-28T18:49:16.266Z,37.17
2023-02-28T18:51:45.122Z,37.80
2023-02-28T18:54:13.467Z,33.53
2023-02-28T18:56:40.114Z,28.80
2023-02-28T18:59:06.861Z,27.92
2023-02-28T19:01:34.441Z,28.98
2023-02-28T19:04:03.319Z,27.63
2023-02-28T19:06:31.546Z,28.58
2023-02-28T19:08:59.955Z,29.60
2023-02-28T19:11:27.890Z,30.23
2023-02-28T19:13:54.613Z,28.92
2023-02-28T19:16:21.950Z,29.52
2023-02-28T19:18:49.095Z,30.45
2023-02-28T19:21:17.704Z,31.23
2023-02-28T19:23:44.804Z,31.08
2023-02-28T19:26:14.481Z,29.50
2023-02-28T19:28:41.411Z,45.60
2023-02-28T19:31:16.218Z,33.50
2023-02-28T19:36:12.416Z,32.38
2023-02-28T19:38:40.070Z,31.67
2023-02-28T19:41:10.927Z,28.58
2023-02-28T19:43:37.909Z,29.35
2023-02-28T19:46:05.186Z,31.48
2023-02-28T19:48:31.988Z,31.50
2023-02-28T19:51:01.233Z,35.58
2023-02-28T19:53:30.256Z,35.58
2023-02-28T19:55:57.137Z,30.42
2023-02-28T19:58:23.772Z,29.80
2023-02-28T20:00:50.535Z,30.52
2023-02-28T20:03:20.496Z,28.75
2023-02-28T20:05:47.668Z,29.17
2023-02-28T20:08:15.027Z,28.67
2023-02-28T20:10:41.970Z,28.50
2023-02-28T20:13:08.699Z,28.48
2023-02-28T20:15:37.127Z,29.30
2023-02-28T20:18:04.692Z,28.92
2023-02-28T20:20:31.447Z,29.15
2023-02-28T20:22:58.055Z,27.15
2023-02-28T20:25:24.663Z,29.50
2023-02-28T20:27:51.320Z,27.88
2023-02-28T20:30:21.841Z,27.40
2023-02-28T20:32:49.149Z,27.38
2023-02-28T20:35:16.016Z,27.92
2023-02-28T20:37:43.143Z,27.75
2023-02-28T20:40:10.410Z,28.02
2023-02-28T20:42:37.238Z,28.30
2023-02-28T20:45:04.296Z,28.58
2023-02-28T20:47:30.896Z,28.75
2023-02-28T20:49:57.534Z,27.27
2023-02-28T20:52:24.195Z,29.00
2023-02-28T20:54:51.036Z,27.45
2023-02-28T20:57:17.711Z,27.83
2023-02-28T20:59:44.399Z,28.27
2023-02-28T21:02:15.982Z,30.98
2023-02-28T21:04:42.924Z,60.80
2023-02-28T21:07:09.534Z,42.05
2023-02-28T21:09:36.213Z,29.90
2023-02-28T21:12:02.832Z,29.52
2023-02-28T21:14:29.482Z,28.00
2023-02-28T21:16:56.119Z,28.48
2023-02-28T21:19:22.956Z,27.80
2023-02-28T21:21:49.910Z,28.15
2023-02-28T21:24:18.711Z,27.48
2023-02-28T21:26:46.954Z,30.63
2023-02-28T21:29:14.741Z,27.55
2023-02-28T21:31:41.464Z,27.55
2023-02-28T21:34:09.578Z,27.83
2023-02-28T21:36:39.401Z,28.77
2023-02-28T21:39:17.976Z,29.45
2023-02-28T21:41:45.247Z,28.40
2023-02-28T21:44:18.318Z,28.70
2023-02-28T21:46:47.475Z,29.52
2023-02-28T21:49:15.668Z,30.20
2023-02-28T21:51:43.076Z,31.45
2023-02-28T21:54:10.992Z,30.10
2023-02-28T21:56:37.970Z,29.23
2023-02-28T21:59:06.827Z,28.60
2023-02-28T22:01:38.646Z,29.15
2023-02-28T22:04:08.222Z,28.85
2023-02-28T22:06:37.912Z,29.02
2023-02-28T22:09:07.484Z,27.58
2023-02-28T22:11:35.557Z,31.42
2023-02-28T22:14:02.299Z,27.35
2023-02-28T22:16:33.155Z,27.30
2023-02-28T22:19:07.701Z,45.10
2023-02-28T22:21:39.403Z,39.75
2023-02-28T22:24:06.593Z,42.28
2023-02-28T22:26:33.474Z,37.33
2023-02-28T22:29:00.661Z,32.65
2023-02-28T22:31:33.282Z,34.80
2023-02-28T22:34:02.508Z,39.13
2023-02-28T22:36:31.029Z,42.60
2023-02-28T22:38:58.721Z,33.55
2023-02-28T22:41:26.479Z,30.98
2023-02-28T22:43:55.623Z,30.17
2023-02-28T22:46:24.312Z,30.45
2023-02-28T22:48:51.322Z,29.58
2023-02-28T22:51:20.307Z,29.65
2023-02-28T22:53:48.548Z,29.70
2023-02-28T22:56:17.287Z,30.52
2023-02-28T22:58:47.929Z,30.23
2023-02-28T23:01:16.775Z,29.45
2023-02-28T23:03:43.834Z,29.52
2023-02-28T23:06:35.516Z,30.38
2023-02-28T23:09:05.582Z,28.45
2023-02-28T23:11:34.882Z,28.25
2023-02-28T23:14:02.129Z,28.33
2023-02-28T23:16:56.489Z,29.48
2023-02-28T23:19:32.200Z,28.98
2023-02-28T23:22:00.838Z,28.52
2023-02-28T23:24:31.135Z,29.83
2023-02-28T23:27:00.441Z,29.23
2023-02-28T23:29:28.504Z,28.42
2023-02-28T23:31:55.837Z,29.33
2023-02-28T23:34:30.346Z,28.40
2023-02-28T23:36:59.428Z,29.35
2023-02-28T23:39:27.473Z,29.13
2023-02-28T23:41:54.769Z,29.75
2023-02-28T23:44:21.597Z,29.00
2023-02-28T23:46:50.795Z,28.70
2023-02-28T23:49:20.985Z,30.20
2023-02-28T23:51:49.427Z,29.42
2023-02-28T23:54:17.376Z,29.05
2023-02-28T23:56:44.557Z,29.27
2023-02-28T23:59:11.790Z,28.75
